createdAt,value
2023-02-05T00:00:25.992Z,6.22
2023-02-05T00:02:54.234Z,4.32
2023-02-05T00:05:24.699Z,8.40
2023-02-05T00:07:52.857Z,3.95
2023-02-05T00:10:21.017Z,5.07
2023-02-05T00:12:50.564Z,5.25
2023-02-05T00:15:18.789Z,4.50
2023-02-05T00:17:46.946Z,6.60
2023-02-05T00:20:15.125Z,4.40
2023-02-05T00:22:45.425Z,4.60
2023-02-05T00:25:13.624Z,4.22
2023-02-05T00:27:41.820Z,7.35
2023-02-05T00:30:13.675Z,4.82
2023-02-05T00:32:41.870Z,5.40
2023-02-05T00:35:10.059Z,3.97
2023-02-05T00:37:38.251Z,3.88
2023-02-05T00:40:07.270Z,4.20
2023-02-05T00:42:35.836Z,7.05
2023-02-05T00:45:07.256Z,3.95
2023-02-05T00:47:36.930Z,5.45
2023-02-05T00:50:06.126Z,4.53
2023-02-05T00:52:34.387Z,5.75
2023-02-05T00:55:02.700Z,3.70
2023-02-05T00:57:33.583Z,3.28
2023-02-05T01:00:01.763Z,4.45
2023-02-05T01:02:33.010Z,3.67
2023-02-05T01:05:02.649Z,3.92
2023-02-05T01:07:31.087Z,5.10
2023-02-05T01:09:59.243Z,3.40
2023-02-05T01:12:27.631Z,3.55
2023-02-05T01:14:55.769Z,4.20
2023-02-05T01:17:23.958Z,4.10
2023-02-05T01:19:54.189Z,4.47
2023-02-05T01:22:23.754Z,3.38
2023-02-05T01:24:54.421Z,3.40
2023-02-05T01:27:25.357Z,4.25
2023-02-05T01:29:53.502Z,4.28
2023-02-05T01:32:21.731Z,5.43
2023-02-05T01:34:49.915Z,6.45
2023-02-05T01:37:18.196Z,6.57
2023-02-05T01:39:47.765Z,4.68
2023-02-05T01:42:20.834Z,4.93
2023-02-05T01:45:18.693Z,4.88
2023-02-05T01:47:49.677Z,4.05
2023-02-05T01:50:20.370Z,5.10
2023-02-05T01:52:51.444Z,3.80
2023-02-05T01:55:21.900Z,5.55
2023-02-05T01:57:53.767Z,4.25
2023-02-05T02:00:24.323Z,4.43
2023-02-05T02:02:53.114Z,4.53
2023-02-05T02:05:21.826Z,6.85
2023-02-05T02:07:50.046Z,4.40
2023-02-05T02:10:21.395Z,3.88
2023-02-05T02:12:50.980Z,4.95
2023-02-05T02:15:22.652Z,3.70
2023-02-05T02:17:54.746Z,3.95
2023-02-05T02:20:26.160Z,3.33
2023-02-05T02:23:13.054Z,2.78
2023-02-05T02:26:17.772Z,4.22
2023-02-05T02:28:52.116Z,2.70
2023-02-05T02:31:29.121Z,3.63
2023-02-05T02:34:04.160Z,4.30
2023-02-05T02:36:36.039Z,6.00
2023-02-05T02:39:10.981Z,3.97
2023-02-05T02:41:44.387Z,3.58
2023-02-05T02:44:17.769Z,4.35
2023-02-05T02:46:49.925Z,3.83
2023-02-05T02:49:25.008Z,4.07
2023-02-05T02:51:54.587Z,4.20
2023-02-05T02:54:23.656Z,3.38
2023-02-05T02:56:53.800Z,3.88
2023-02-05T02:59:27.375Z,3.60
2023-02-05T03:02:01.238Z,4.47
2023-02-05T03:04:33.073Z,3.88
2023-02-05T03:07:07.711Z,3.65
2023-02-05T03:09:43.780Z,4.30
2023-02-05T03:12:12.123Z,3.97
2023-02-05T03:14:44.409Z,3.78
2023-02-05T03:17:18.748Z,4.15
2023-02-05T03:19:53.523Z,2.92
2023-02-05T03:22:21.776Z,3.35
2023-02-05T03:24:52.054Z,3.55
2023-02-05T03:27:22.004Z,2.63
2023-02-05T03:29:52.452Z,6.22
2023-02-05T03:32:35.064Z,2.83
2023-02-05T03:35:14.052Z,3.75
2023-02-05T03:37:51.001Z,2.65
2023-02-05T03:40:23.819Z,3.22
2023-02-05T03:43:01.822Z,3.50
2023-02-05T03:45:38.621Z,3.30
2023-02-05T03:48:30.196Z,2.50
2023-02-05T03:51:12.078Z,2.20
2023-02-05T03:53:48.221Z,3.08
2023-02-05T03:56:21.970Z,3.90
2023-02-05T03:58:54.630Z,3.97
2023-02-05T04:01:25.979Z,2.58
2023-02-05T04:03:54.219Z,5.45
2023-02-05T04:06:22.492Z,3.20
2023-02-05T04:08:53.408Z,4.28
2023-02-05T04:11:21.596Z,2.85
2023-02-05T04:13:50.880Z,3.10
2023-02-05T04:16:19.238Z,3.58
2023-02-05T04:18:49.059Z,3.92
2023-02-05T04:21:18.103Z,2.90
2023-02-05T04:23:46.431Z,3.78
2023-02-05T04:26:14.685Z,3.75
2023-02-05T04:28:50.342Z,3.05
2023-02-05T04:31:18.733Z,3.85
2023-02-05T04:33:48.355Z,3.75
2023-02-05T04:36:18.656Z,4.18
2023-02-05T04:38:46.950Z,3.22
2023-02-05T04:41:16.018Z,3.75
2023-02-05T04:43:44.274Z,4.45
2023-02-05T04:46:13.048Z,3.17
2023-02-05T04:48:42.105Z,3.67
2023-02-05T04:51:14.394Z,3.30
2023-02-05T04:53:42.720Z,2.75
2023-02-05T04:56:13.112Z,2.97
2023-02-05T04:58:41.883Z,4.20
2023-02-05T05:01:14.281Z,2.40
2023-02-05T05:03:44.711Z,2.92
2023-02-05T05:06:15.476Z,3.53
2023-02-05T05:08:43.768Z,2.25
2023-02-05T05:11:13.926Z,3.10
2023-02-05T05:13:42.310Z,2.80
2023-02-05T05:16:11.621Z,4.38
2023-02-05T05:18:40.548Z,3.55
2023-02-05T05:21:09.414Z,4.03
2023-02-05T05:23:41.472Z,2.65
2023-02-05T05:26:12.587Z,2.55
2023-02-05T05:28:41.005Z,2.03
2023-02-05T05:31:10.563Z,4.30
2023-02-05T05:33:39.171Z,2.78
2023-02-05T05:36:08.623Z,4.47
2023-02-05T05:38:37.022Z,2.50
2023-02-05T05:41:23.980Z,2.60
2023-02-05T05:43:53.819Z,5.22
2023-02-05T05:46:26.752Z,5.90
2023-02-05T05:48:56.519Z,4.00
2023-02-05T05:51:25.984Z,3.15
2023-02-05T05:53:54.979Z,2.75
2023-02-05T05:56:24.710Z,4.18
2023-02-05T05:58:52.877Z,3.53
2023-02-05T06:01:23.022Z,2.80
2023-02-05T06:03:51.628Z,4.50
2023-02-05T06:06:19.815Z,3.10
2023-02-05T06:08:48.028Z,2.55
2023-02-05T06:11:16.252Z,2.67
2023-02-05T06:13:45.793Z,3.33
2023-02-05T06:16:14.037Z,2.65
2023-02-05T06:18:42.338Z,2.97
2023-02-05T06:21:12.981Z,5.03
2023-02-05T06:23:41.126Z,2.65
2023-02-05T06:26:09.299Z,4.57
2023-02-05T06:28:37.469Z,3.00
2023-02-05T06:31:07.118Z,2.85
2023-02-05T06:33:35.317Z,3.45
2023-02-05T06:36:03.546Z,2.63
2023-02-05T06:38:31.801Z,2.78
2023-02-05T06:40:59.967Z,2.08
2023-02-05T06:43:28.219Z,3.22
2023-02-05T06:45:56.815Z,2.65
2023-02-05T06:48:26.348Z,2.45
2023-02-05T06:50:54.516Z,2.58
2023-02-05T06:53:22.835Z,2.72
2023-02-05T06:55:51.094Z,2.45
2023-02-05T06:58:19.222Z,2.97
2023-02-05T07:00:47.380Z,3.47
2023-02-05T07:03:15.560Z,3.38
2023-02-05T07:05:45.098Z,2.47
2023-02-05T07:08:13.389Z,2.45
2023-02-05T07:10:41.593Z,3.83
2023-02-05T07:13:09.765Z,2.30
2023-02-05T07:15:38.575Z,4.47
2023-02-05T07:18:07.633Z,4.15
2023-02-05T07:20:35.884Z,2.47
2023-02-05T07:23:05.756Z,3.65
2023-02-05T07:25:38.031Z,3.33
2023-02-05T07:28:07.010Z,3.22
2023-02-05T07:30:35.451Z,3.20
2023-02-05T07:33:04.742Z,2.95
2023-02-05T07:35:35.549Z,2.78
2023-02-05T07:38:05.361Z,3.03
2023-02-05T07:40:35.851Z,4.63
2023-02-05T07:43:03.997Z,3.47
2023-02-05T07:45:32.451Z,3.58
2023-02-05T07:48:00.700Z,3.72
2023-02-05T07:50:28.877Z,3.72
2023-02-05T07:52:57.325Z,2.92
2023-02-05T07:55:26.977Z,2.30
2023-02-05T07:57:55.153Z,3.08
2023-02-05T08:00:24.870Z,3.08
2023-02-05T08:02:53.054Z,3.03
2023-02-05T08:05:21.248Z,3.28
2023-02-05T08:07:52.007Z,3.85
2023-02-05T08:10:20.376Z,6.60
2023-02-05T08:12:49.920Z,5.68
2023-02-05T08:15:18.375Z,5.60
2023-02-05T08:17:46.583Z,4.30
2023-02-05T08:20:15.198Z,3.70
2023-02-05T08:22:45.343Z,3.05
2023-02-05T08:25:15.498Z,4.55
2023-02-05T08:27:46.086Z,3.78
2023-02-05T08:30:20.217Z,5.22
2023-02-05T08:32:49.243Z,2.97
2023-02-05T08:35:17.578Z,3.47
2023-02-05T08:37:45.832Z,4.80
2023-02-05T08:40:14.600Z,3.65
2023-02-05T08:42:42.848Z,3.60
2023-02-05T08:45:11.526Z,4.60
2023-02-05T08:47:41.123Z,5.88
2023-02-05T08:50:10.189Z,5.13
2023-02-05T08:52:38.731Z,5.18
2023-02-05T08:55:07.355Z,5.20
2023-02-05T08:57:35.630Z,4.10
2023-02-05T09:00:07.811Z,3.83
2023-02-05T09:02:35.998Z,5.57
2023-02-05T09:05:09.280Z,4.15
2023-02-05T09:07:40.657Z,5.35
2023-02-05T09:10:10.258Z,4.30
2023-02-05T09:12:38.633Z,4.35
2023-02-05T09:15:07.475Z,4.28
2023-02-05T09:17:35.683Z,3.80
2023-02-05T09:20:05.725Z,6.20
2023-02-05T09:22:33.910Z,3.65
2023-02-05T09:25:02.045Z,6.50
2023-02-05T09:27:30.534Z,4.65
2023-02-05T09:29:59.070Z,4.50
2023-02-05T09:32:27.347Z,4.57
2023-02-05T09:34:55.565Z,2.95
2023-02-05T09:37:25.147Z,3.85
2023-02-05T09:40:19.475Z,3.88
2023-02-05T09:42:46.310Z,5.18
2023-02-05T09:45:28.104Z,4.05
2023-02-05T09:48:04.316Z,3.22
2023-02-05T09:50:33.824Z,3.75
2023-02-05T09:53:05.998Z,2.70
2023-02-05T09:55:40.870Z,2.63
2023-02-05T09:58:14.430Z,3.65
2023-02-05T10:00:48.160Z,2.63
2023-02-05T10:03:23.972Z,2.28
2023-02-05T10:06:08.020Z,2.95
2023-02-05T10:08:47.740Z,2.80
2023-02-05T10:11:24.958Z,2.53
2023-02-05T10:14:06.149Z,3.88
2023-02-05T10:16:59.107Z,3.92
2023-02-05T10:20:07.092Z,2.85
2023-02-05T10:22:46.944Z,3.03
2023-02-05T10:25:45.821Z,4.00
2023-02-05T10:28:30.186Z,3.53
2023-02-05T10:31:06.710Z,2.72
2023-02-05T10:33:45.647Z,3.03
2023-02-05T10:36:21.825Z,4.35
2023-02-05T10:38:52.948Z,4.57
2023-02-05T10:41:27.885Z,3.83
2023-02-05T10:44:04.496Z,3.92
2023-02-05T10:46:36.302Z,3.80
2023-02-05T10:49:09.817Z,2.78
2023-02-05T10:51:43.064Z,4.43
2023-02-05T10:54:21.712Z,2.72
2023-02-05T10:56:51.300Z,3.45
2023-02-05T10:59:25.842Z,3.13
2023-02-05T11:01:56.850Z,4.18
2023-02-05T11:04:34.246Z,2.85
2023-02-05T11:07:06.211Z,3.75
2023-02-05T11:09:35.851Z,4.60
2023-02-05T11:12:09.497Z,3.08
2023-02-05T11:14:39.741Z,3.33
2023-02-05T11:17:11.279Z,4.25
2023-02-05T11:19:39.590Z,4.13
2023-02-05T11:22:07.924Z,2.85
2023-02-05T11:24:39.467Z,3.17
2023-02-05T11:27:30.381Z,3.45
2023-02-05T11:30:01.039Z,4.85
2023-02-05T11:32:36.097Z,3.95
2023-02-05T11:35:30.470Z,3.20
2023-02-05T11:38:02.484Z,4.55
2023-02-05T11:40:33.426Z,2.90
2023-02-05T11:43:08.850Z,4.40
2023-02-05T11:45:39.777Z,3.15
2023-02-05T11:48:23.026Z,3.28
2023-02-05T11:50:51.406Z,3.92
2023-02-05T11:53:21.937Z,3.50
2023-02-05T11:55:56.254Z,2.22
2023-02-05T11:58:36.664Z,5.43
2023-02-05T12:01:23.948Z,4.55
2023-02-05T12:04:00.456Z,2.85
2023-02-05T12:06:34.726Z,3.38
2023-02-05T12:09:03.276Z,3.03
2023-02-05T12:12:00.961Z,3.38
2023-02-05T12:14:39.167Z,3.20
2023-02-05T12:17:24.876Z,2.30
2023-02-05T12:19:59.554Z,2.90
2023-02-05T12:22:46.552Z,3.55
2023-02-05T12:25:21.844Z,2.65
2023-02-05T12:28:05.401Z,2.47
2023-02-05T12:30:55.074Z,2.72
2023-02-05T12:33:39.304Z,2.42
2023-02-05T12:36:22.491Z,2.80
2023-02-05T12:39:03.140Z,3.03
2023-02-05T12:41:41.816Z,3.65
2023-02-05T12:44:27.257Z,3.92
2023-02-05T12:47:12.856Z,3.10
2023-02-05T12:50:04.688Z,3.28
2023-02-05T12:52:47.569Z,2.70
2023-02-05T12:55:26.894Z,3.08
2023-02-05T12:58:00.390Z,2.90
2023-02-05T13:00:33.833Z,3.97
2023-02-05T13:03:12.257Z,3.30
2023-02-05T13:05:45.915Z,3.17
2023-02-05T13:08:18.733Z,2.88
2023-02-05T13:10:53.092Z,4.70
2023-02-05T13:13:26.649Z,2.25
2023-02-05T13:16:02.342Z,2.92
2023-02-05T13:18:36.341Z,3.00
2023-02-05T13:21:24.797Z,2.67
2023-02-05T13:24:30.479Z,2.58
2023-02-05T13:27:16.629Z,2.63
2023-02-05T13:29:51.634Z,4.30
2023-02-05T13:32:24.126Z,3.70
2023-02-05T13:34:56.672Z,3.20
2023-02-05T13:37:48.928Z,5.03
2023-02-05T13:40:31.864Z,3.15
2023-02-05T13:43:38.874Z,2.28
2023-02-05T13:46:30.080Z,2.90
2023-02-05T13:49:25.277Z,2.50
2023-02-05T13:52:11.905Z,3.53
2023-02-05T13:55:14.373Z,2.22
2023-02-05T13:58:19.465Z,2.65
2023-02-05T14:00:58.272Z,2.42
2023-02-05T14:03:35.080Z,3.20
2023-02-05T14:06:21.803Z,2.70
2023-02-05T14:08:57.880Z,2.85
2023-02-05T14:11:26.464Z,5.25
2023-02-05T14:14:23.441Z,2.80
2023-02-05T14:16:53.043Z,4.00
2023-02-05T14:19:25.774Z,2.50
2023-02-05T14:22:03.305Z,2.65
2023-02-05T14:24:45.821Z,2.25
2023-02-05T14:27:52.129Z,3.58
2023-02-05T14:30:50.096Z,2.47
2023-02-05T14:33:39.707Z,4.25
2023-02-05T14:36:36.778Z,2.30
2023-02-05T14:39:18.711Z,2.47
2023-02-05T14:41:56.067Z,2.67
2023-02-05T14:44:28.606Z,2.95
2023-02-05T14:47:03.908Z,3.15
2023-02-05T14:49:42.452Z,2.85
2023-02-05T14:52:27.106Z,2.42
2023-02-05T14:55:00.316Z,2.58
2023-02-05T14:57:41.769Z,3.45
2023-02-05T15:00:28.412Z,2.65
2023-02-05T15:03:25.973Z,2.55
2023-02-05T15:05:59.433Z,2.50
2023-02-05T15:08:40.350Z,2.60
2023-02-05T15:11:16.999Z,2.17
2023-02-05T15:14:20.608Z,3.08
2023-02-05T15:17:39.516Z,3.47
2023-02-05T15:20:36.354Z,3.53
2023-02-05T15:23:19.522Z,2.60
2023-02-05T15:25:54.831Z,2.75
2023-02-05T15:28:31.767Z,2.17
2023-02-05T15:31:10.213Z,2.90
2023-02-05T15:33:48.436Z,2.80
2023-02-05T15:36:26.578Z,2.75
2023-02-05T15:39:06.346Z,2.60
2023-02-05T15:41:37.086Z,3.17
2023-02-05T15:44:05.626Z,3.85
2023-02-05T15:46:34.786Z,3.80
2023-02-05T15:49:07.211Z,3.78
2023-02-05T15:51:37.818Z,3.85
2023-02-05T15:54:07.493Z,3.80
2023-02-05T15:56:38.019Z,3.50
2023-02-05T15:59:16.567Z,2.47
2023-02-05T16:01:48.101Z,4.60
2023-02-05T16:04:28.077Z,4.43
2023-02-05T16:06:56.533Z,3.63
2023-02-05T16:09:26.723Z,4.03
2023-02-05T16:11:55.567Z,3.95
2023-02-05T16:14:25.312Z,3.47
2023-02-05T16:17:01.368Z,4.28
2023-02-05T16:19:35.072Z,3.55
2023-02-05T16:22:11.639Z,2.78
2023-02-05T16:24:44.347Z,4.38
2023-02-05T16:27:18.468Z,4.43
2023-02-05T16:29:51.832Z,4.18
2023-02-05T16:32:29.977Z,3.28
2023-02-05T16:35:02.365Z,2.88
2023-02-05T16:37:32.519Z,4.85
2023-02-05T16:40:06.044Z,3.08
2023-02-05T16:42:39.161Z,2.45
2023-02-05T16:45:21.293Z,2.40
2023-02-05T16:48:23.981Z,5.10
2023-02-05T16:50:53.651Z,3.17
2023-02-05T16:53:26.433Z,2.80
2023-02-05T16:55:59.284Z,3.67
2023-02-05T16:58:34.426Z,3.13
2023-02-05T17:01:04.148Z,4.72
2023-02-05T17:03:36.742Z,3.08
2023-02-05T17:06:12.097Z,2.90
2023-02-05T17:08:41.195Z,4.35
2023-02-05T17:11:36.042Z,3.55
2023-02-05T17:14:22.532Z,2.70
2023-02-05T17:16:56.097Z,2.65
2023-02-05T17:19:26.600Z,3.15
2023-02-05T17:22:21.723Z,3.78
2023-02-05T17:24:52.031Z,3.72
2023-02-05T17:27:25.725Z,3.22
2023-02-05T17:29:54.028Z,3.15
2023-02-05T17:32:22.958Z,3.95
2023-02-05T17:34:51.285Z,5.32
2023-02-05T17:37:19.432Z,3.90
2023-02-05T17:39:49.815Z,4.30
2023-02-05T17:42:22.005Z,4.57
2023-02-05T17:44:50.424Z,3.10
2023-02-05T17:47:18.745Z,4.88
2023-02-05T17:49:47.433Z,4.50
2023-02-05T17:52:16.446Z,4.55
2023-02-05T17:54:46.317Z,5.25
2023-02-05T17:57:18.828Z,6.15
2023-02-05T17:59:47.203Z,5.60
2023-02-05T18:02:16.282Z,5.65
2023-02-05T18:04:44.917Z,7.13
2023-02-05T18:07:22.731Z,4.80
2023-02-05T18:09:50.983Z,5.72
2023-02-05T18:12:20.563Z,5.07
2023-02-05T18:14:48.738Z,6.25
2023-02-05T18:17:16.919Z,6.25
2023-02-05T18:19:45.079Z,6.55
2023-02-05T18:22:13.653Z,5.30
2023-02-05T18:24:41.804Z,6.47
2023-02-05T18:27:12.063Z,6.68
2023-02-05T18:29:43.671Z,6.70
2023-02-05T18:32:12.079Z,3.65
2023-02-05T18:34:40.988Z,5.20
2023-02-05T18:37:14.094Z,5.25
2023-02-05T18:39:42.401Z,8.95
2023-02-05T18:42:11.525Z,6.28
2023-02-05T18:44:41.552Z,4.15
2023-02-05T18:47:10.150Z,7.50
2023-02-05T18:49:38.572Z,5.00
2023-02-05T18:52:07.240Z,5.30
2023-02-05T18:54:35.401Z,5.80
2023-02-05T18:57:06.610Z,5.82
2023-02-05T18:59:37.910Z,7.22
2023-02-05T19:02:07.970Z,6.32
2023-02-05T19:04:36.140Z,9.02
2023-02-05T19:07:04.391Z,6.57
2023-02-05T19:09:32.594Z,7.00
2023-02-05T19:12:01.017Z,6.82
2023-02-05T19:14:29.671Z,4.43
2023-02-05T19:16:57.927Z,11.23
2023-02-05T19:19:27.693Z,9.68
2023-02-05T19:22:00.016Z,12.45
2023-02-05T19:24:31.133Z,5.47
2023-02-05T19:27:00.052Z,6.18
2023-02-05T19:29:28.700Z,8.13
2023-02-05T19:31:57.406Z,9.73
2023-02-05T19:34:27.827Z,6.88
2023-02-05T19:36:56.140Z,7.10
2023-02-05T19:39:24.375Z,5.75
2023-02-05T19:41:52.945Z,6.10
2023-02-05T19:44:21.542Z,7.03
2023-02-05T19:46:50.475Z,5.22
2023-02-05T19:49:20.588Z,5.28
2023-02-05T19:51:51.819Z,9.80
2023-02-05T19:54:21.566Z,6.47
2023-02-05T19:56:50.664Z,6.30
2023-02-05T19:59:19.418Z,8.18
2023-02-05T20:01:47.730Z,8.05
2023-02-05T20:04:18.271Z,11.73
2023-02-05T20:06:47.997Z,6.65
2023-02-05T20:09:18.405Z,6.90
2023-02-05T20:11:50.975Z,9.40
2023-02-05T20:14:19.805Z,9.35
2023-02-05T20:16:48.593Z,5.53
2023-02-05T20:19:18.488Z,6.70
2023-02-05T20:21:47.823Z,6.78
2023-02-05T20:24:19.735Z,5.72
2023-02-05T20:26:50.208Z,7.20
2023-02-05T20:29:36.110Z,6.50
2023-02-05T20:32:04.646Z,8.02
2023-02-05T20:34:35.996Z,5.30
2023-02-05T20:37:09.473Z,9.90
2023-02-05T20:39:42.022Z,7.70
2023-02-05T20:42:13.431Z,7.30
2023-02-05T20:44:42.114Z,9.32
2023-02-05T20:47:13.369Z,7.30
2023-02-05T20:49:42.948Z,10.65
2023-02-05T20:52:13.181Z,10.98
2023-02-05T20:54:42.885Z,9.00
2023-02-05T20:57:11.073Z,8.65
2023-02-05T20:59:39.259Z,7.47
2023-02-05T21:02:07.783Z,10.35
2023-02-05T21:04:37.820Z,11.52
2023-02-05T21:07:05.983Z,11.93
2023-02-05T21:09:34.339Z,13.07
2023-02-05T21:12:04.207Z,6.60
2023-02-05T21:14:32.990Z,9.38
2023-02-05T21:17:01.337Z,11.13
2023-02-05T21:19:29.572Z,10.85
2023-02-05T21:21:57.717Z,7.30
2023-02-05T21:24:26.038Z,13.27
2023-02-05T21:26:54.193Z,8.60
2023-02-05T21:29:26.338Z,7.75
2023-02-05T21:31:55.784Z,12.88
2023-02-05T21:34:26.338Z,10.40
2023-02-05T21:36:55.972Z,11.80
2023-02-05T21:39:25.582Z,13.43
2023-02-05T21:41:54.547Z,11.82
2023-02-05T21:44:26.324Z,9.52
2023-02-05T21:46:55.341Z,8.35
2023-02-05T21:49:23.608Z,7.05
2023-02-05T21:51:54.208Z,7.95
2023-02-05T21:54:25.622Z,9.93
2023-02-05T21:56:54.479Z,8.23
2023-02-05T21:59:23.144Z,6.95
2023-02-05T22:01:52.797Z,8.52
2023-02-05T22:04:21.120Z,9.13
2023-02-05T22:06:49.298Z,14.18
2023-02-05T22:09:18.161Z,10.65
2023-02-05T22:11:46.619Z,10.15
2023-02-05T22:14:14.888Z,11.15
2023-02-05T22:16:43.557Z,10.05
2023-02-05T22:19:13.242Z,8.77
2023-02-05T22:21:43.342Z,8.85
2023-02-05T22:24:15.836Z,11.98
2023-02-05T22:26:47.731Z,16.10
2023-02-05T22:29:18.040Z,14.20
2023-02-05T22:31:50.019Z,15.27
2023-02-05T22:34:19.726Z,15.75
2023-02-05T22:36:47.906Z,13.95
2023-02-05T22:39:16.105Z,12.85
2023-02-05T22:41:44.520Z,10.98
2023-02-05T22:44:13.407Z,15.48
2023-02-05T22:46:43.144Z,12.52
2023-02-05T22:49:13.237Z,12.60
2023-02-05T22:51:43.151Z,9.82
2023-02-05T22:54:14.704Z,9.50
2023-02-05T22:56:42.889Z,10.75
2023-02-05T22:59:11.463Z,14.40
2023-02-05T23:01:39.937Z,12.15
2023-02-05T23:04:09.822Z,10.77
2023-02-05T23:06:40.088Z,10.55
2023-02-05T23:09:11.620Z,15.05
2023-02-05T23:11:39.968Z,16.13
2023-02-05T23:14:08.821Z,18.45
2023-02-05T23:16:38.700Z,13.90
2023-02-05T23:19:09.710Z,17.20
2023-02-05T23:21:39.493Z,14.50
2023-02-05T23:24:10.518Z,15.32
2023-02-05T23:26:42.438Z,20.05
2023-02-05T23:29:11.660Z,17.95
2023-02-05T23:31:40.142Z,17.27
2023-02-05T23:34:08.692Z,17.38
2023-02-05T23:36:36.863Z,18.20
2023-02-05T23:39:05.533Z,18.52
2023-02-05T23:41:39.723Z,21.52
2023-02-05T23:44:13.161Z,17.17
2023-02-05T23:46:42.696Z,18.25
2023-02-05T23:49:11.055Z,16.92
2023-02-05T23:51:40.852Z,21.45
2023-02-05T23:54:10.706Z,19.08
2023-02-05T23:56:40.293Z,21.83
2023-02-05T23:59:12.790Z,18.55
